Aeroporto :
LOGIN :

Iscrizione | Disclaimer

   EN    FR    IT 

 










Sommario :    VFR   VFR Marginale   IFR   IFR Intensivo   IFR Molto Intensivo
Visibilità : 
Base nubi : 
>= 8 km
>= 3000ft
5 / 8 km
1000 / 3000 ft
1500m / 5 km
500 / 1000 ft
800 / 1500m
200 / 500 ft
< 800m
< 200 ft
Simboli :   Temporali  Nebbia  Neve Forte  Precipitazioni Forti  Vento > 20 kt
SIGMETs :   Varie  Temporali  Ghiacco  Turbolenza  Onda orograficha  Ceneri Vulcaniche






- Altitudine del aeroporto : 778 ft
- Codice IATA : BRQ


LKTB - Brno-Turany

ULTIMO METAR :
  • 310800Z 29007KT 9999 -RA BKN044 10/07 Q1015 NOSIG

METARs OBSOLETI :
  • 310735Z 29008KT 9999 -RA NSC 10/07 Q1015 RMK REG QNH 1013
  • 310700Z 28008KT 9999 -RA NSC 10/07 Q1015 NOSIG
  • 310630Z 29012KT 9999 -RA NSC 10/07 Q1015 NOSIG
  • 310610Z 28011KT 9999 RA NSC 10/07 Q1015 RMK REG QNH 1013
  • 310600Z 29012KT 9999 -RA NSC 10/07 Q1015 NOSIG
  • 310530Z 33011KT 300V360 9999 -RA NSC 11/06 Q1015 NOSIG
  • 310507Z 34011KT 9999 -RA NSC 11/05 Q1016 RMK REG QNH 1013

TAF TAF LKTB
Valido dal 31 a 06 ore il 01 a 12 ore UTC


310500Z 3106/0112 34008KT 9999 BKN040
TEMPO 3106/3115 35012G22KT 7000 -RA BKN026
BECMG 3118/3121 SCT040
TEMPO 0109/0112 34012G22KT



MetMap, La meteo Aeronautica in un colpo d'occhio ! - Copyright ORBIFLY Dicembre 2007 - Disclaimer

ORBIFLY MET'MAP TEAM :

Programmazione e sviluppo : Alexandra Zaïnal
Concezione : Baudouin d'Aumeries
Aiuto per la programmazione : Marc-Olivier Méhu
Supporto tecnico e logistico : Manuel Goepfert
Aiuto per la traduzione : Arnaldo La Scala

Contatto : metmap@orbifly.com




FONTI E CREDITI :

   NOAA